Time;durP1;ratioP1;P1;durP2;ratioP2;P2;SDS_P1;SDS_P2;PMS_P1;PMS_P2;Temp;Humidity;BMP_temperature;BMP_pressure;BME280_temperature;BME280_humidity;BME280_pressure;Samples;Min_cycle;Max_cycle;Signal;HPM_P1;HPM_P2
2021/10/12 00:01:38;;;;;;;7.97;2.20;;;;;;;;;;5034988;28;20195;-70
2021/10/12 00:04:03;;;;;;;5.73;2.33;;;;;;;;;;5040738;28;20541;-70
2021/10/12 00:06:28;;;;;;;11.00;2.57;;;;;;;;;;5043961;28;20619;-70
2021/10/12 00:08:54;;;;;;;8.53;2.03;;;;;;;;;;5046437;28;20213;-71
2021/10/12 00:11:19;;;;;;;14.27;2.70;;;;;;;;;;5050188;28;20201;-71
2021/10/12 00:13:44;;;;;;;3.20;2.17;;;;;;;;;;5048220;28;20208;-71
2021/10/12 00:16:09;;;;;;;9.97;1.87;;;;;;;;;;5032464;28;20179;-71
2021/10/12 00:18:34;;;;;;;5.53;1.83;;;;;;;;;;5048836;28;20205;-71
2021/10/12 00:21:00;;;;;;;9.37;2.00;;;;;;;;;;5048791;28;20212;-71
2021/10/12 00:23:25;;;;;;;7.27;1.63;;;;;;;;;;5046610;28;20194;-71
2021/10/12 00:25:50;;;;;;;12.27;3.13;;;;;;;;;;5052113;28;20195;-71
2021/10/12 00:28:15;;;;;;;6.87;1.80;;;;;;;;;;5050431;28;20227;-71
2021/10/12 00:30:40;;;;;;;8.60;1.57;;;;;;;;;;5048500;28;20181;-71
2021/10/12 00:33:05;;;;;;;9.03;2.20;;;;;;;;;;5045485;28;20209;-74
2021/10/12 00:35:31;;;;;;;5.67;1.97;;;;;;;;;;5045949;28;20204;-71
2021/10/12 00:37:56;;;;;;;8.33;2.50;;;;;;;;;;5052332;28;20193;-71
2021/10/12 00:40:21;;;;;;;11.10;2.90;;;;;;;;;;5045827;28;20185;-71
2021/10/12 00:42:46;;;;;;;9.33;2.07;;;;;;;;;;5052061;28;20194;-71
2021/10/12 00:45:12;;;;;;;8.20;2.27;;;;;;;;;;5052161;28;20184;-71
2021/10/12 00:47:38;;;;;;;8.17;1.70;;;;;;;;;;5050784;28;20276;-71
2021/10/12 00:50:04;;;;;;;10.73;2.00;;;;;;;;;;5050426;28;20757;-70
2021/10/12 00:52:29;;;;;;;5.20;1.90;;;;;;;;;;5051835;28;20222;-71
2021/10/12 00:54:54;;;;;;;5.53;1.60;;;;;;;;;;5046571;28;20622;-70
2021/10/12 00:57:19;;;;;;;9.67;1.73;;;;;;;;;;5049195;28;20189;-70
2021/10/12 00:59:45;;;;;;;9.50;1.97;;;;;;;;;;5047829;28;20525;-71
2021/10/12 01:02:10;;;;;;;6.00;2.83;;;;;;;;;;5049205;28;20205;-70
2021/10/12 01:04:35;;;;;;;7.90;2.23;;;;;;;;;;5051384;28;20169;-71
2021/10/12 01:07:01;;;;;;;3.87;1.37;;;;;;;;;;5046965;28;20186;-71
2021/10/12 01:09:26;;;;;;;7.00;1.20;;;;;;;;;;5041093;28;20610;-71
2021/10/12 01:11:51;;;;;;;6.73;1.43;;;;;;;;;;5050296;28;20674;-71
2021/10/12 01:14:17;;;;;;;6.37;1.60;;;;;;;;;;5044434;28;20248;-70
2021/10/12 01:16:42;;;;;;;3.07;1.13;;;;;;;;;;5034430;28;20182;-71
2021/10/12 01:19:08;;;;;;;9.90;2.43;;;;;;;;;;5048269;28;20675;-71
2021/10/12 01:21:43;;;;;;;4.97;1.40;;;;;;;;;;5049590;28;20289;-71
2021/10/12 01:24:09;;;;;;;7.17;1.60;;;;;;;;;;5050652;28;20223;-71
2021/10/12 01:26:34;;;;;;;3.60;1.13;;;;;;;;;;5050829;28;20213;-71
2021/10/12 01:29:00;;;;;;;4.13;1.20;;;;;;;;;;5050094;28;20185;-71
2021/10/12 01:31:26;;;;;;;7.13;1.00;;;;;;;;;;5050304;28;20205;-71
2021/10/12 01:33:52;;;;;;;7.53;1.50;;;;;;;;;;5053899;28;20189;-71
2021/10/12 01:36:17;;;;;;;6.20;1.73;;;;;;;;;;5045634;28;20577;-71
2021/10/12 01:38:43;;;;;;;4.30;1.53;;;;;;;;;;5039970;28;20204;-71
2021/10/12 01:41:08;;;;;;;7.27;1.80;;;;;;;;;;5046604;28;20332;-71
2021/10/12 01:43:34;;;;;;;5.20;1.40;;;;;;;;;;5049111;28;20178;-71
2021/10/12 01:45:59;;;;;;;4.80;1.60;;;;;;;;;;5038888;28;20173;-71
2021/10/12 01:48:25;;;;;;;6.67;1.30;;;;;;;;;;5042026;28;20182;-71
2021/10/12 01:50:50;;;;;;;7.10;1.70;;;;;;;;;;5053617;28;20232;-70
2021/10/12 01:53:15;;;;;;;6.57;2.47;;;;;;;;;;5047562;28;20190;-71
2021/10/12 01:55:40;;;;;;;6.27;1.43;;;;;;;;;;5045822;28;20264;-71
2021/10/12 01:58:05;;;;;;;4.87;1.30;;;;;;;;;;5048761;28;20225;-71
2021/10/12 02:00:31;;;;;;;6.03;1.43;;;;;;;;;;5051177;28;20236;-71
2021/10/12 02:02:56;;;;;;;4.20;1.27;;;;;;;;;;5052266;28;20208;-71
2021/10/12 02:05:21;;;;;;;9.20;1.30;;;;;;;;;;5047096;28;20185;-71
2021/10/12 02:07:46;;;;;;;6.73;1.73;;;;;;;;;;5062162;28;20181;-71
2021/10/12 02:10:11;;;;;;;6.17;1.20;;;;;;;;;;5043568;28;20173;-71
2021/10/12 02:12:37;;;;;;;5.13;1.50;;;;;;;;;;5048526;28;20217;-71
2021/10/12 02:15:03;;;;;;;4.77;1.87;;;;;;;;;;5055561;28;20189;-71
2021/10/12 02:17:28;;;;;;;6.67;1.40;;;;;;;;;;5052024;28;20300;-71
2021/10/12 02:19:53;;;;;;;4.50;1.20;;;;;;;;;;5050537;28;20201;-71
2021/10/12 02:22:18;;;;;;;9.63;1.13;;;;;;;;;;5048305;28;20277;-71
2021/10/12 02:24:43;;;;;;;7.37;1.80;;;;;;;;;;5051482;28;20696;-71
2021/10/12 02:27:09;;;;;;;7.67;2.10;;;;;;;;;;5051191;28;20256;-71
2021/10/12 02:29:34;;;;;;;4.07;1.20;;;;;;;;;;5052420;28;20181;-71
2021/10/12 02:31:59;;;;;;;7.27;1.37;;;;;;;;;;5050921;28;20193;-71
2021/10/12 02:34:24;;;;;;;3.57;1.00;;;;;;;;;;5048521;28;20188;-71
2021/10/12 02:36:49;;;;;;;5.07;1.13;;;;;;;;;;5051254;28;20252;-71
2021/10/12 02:39:14;;;;;;;4.23;1.80;;;;;;;;;;5055479;28;20610;-71
2021/10/12 02:41:40;;;;;;;3.90;1.63;;;;;;;;;;5047775;28;20213;-71
2021/10/12 02:44:05;;;;;;;3.53;1.00;;;;;;;;;;5046768;28;20248;-71
2021/10/12 02:46:30;;;;;;;7.60;1.57;;;;;;;;;;5044370;28;20186;-71
2021/10/12 02:48:55;;;;;;;5.47;1.60;;;;;;;;;;5050186;28;20178;-71
2021/10/12 02:51:20;;;;;;;6.57;1.63;;;;;;;;;;5049716;28;20278;-71
2021/10/12 02:53:45;;;;;;;7.07;1.87;;;;;;;;;;5051898;28;20188;-71
2021/10/12 02:56:11;;;;;;;7.17;1.80;;;;;;;;;;5044692;28;20335;-71
2021/10/12 02:58:36;;;;;;;9.60;1.87;;;;;;;;;;5051597;28;20193;-71
2021/10/12 03:01:01;;;;;;;6.23;1.63;;;;;;;;;;5046197;28;20300;-71
2021/10/12 03:03:26;;;;;;;8.27;1.70;;;;;;;;;;5052151;28;20178;-71
2021/10/12 03:05:51;;;;;;;6.13;1.60;;;;;;;;;;5042315;28;20169;-71
2021/10/12 03:08:17;;;;;;;7.83;1.73;;;;;;;;;;5046258;28;20225;-71
2021/10/12 03:10:42;;;;;;;7.87;2.47;;;;;;;;;;5046759;28;20174;-71
2021/10/12 03:13:07;;;;;;;4.87;1.43;;;;;;;;;;5046277;28;20170;-71
2021/10/12 03:15:32;;;;;;;10.00;2.03;;;;;;;;;;5048381;28;20204;-71
2021/10/12 03:17:58;;;;;;;6.80;1.40;;;;;;;;;;5048505;28;20194;-71
2021/10/12 03:20:23;;;;;;;5.73;1.87;;;;;;;;;;5059383;28;20929;-71
2021/10/12 03:22:48;;;;;;;8.20;1.60;;;;;;;;;;5061317;28;20247;-71
2021/10/12 03:25:13;;;;;;;4.10;1.70;;;;;;;;;;5050261;28;20749;-71
2021/10/12 03:27:39;;;;;;;8.00;1.50;;;;;;;;;;5059121;28;20263;-71
2021/10/12 03:30:04;;;;;;;6.00;2.13;;;;;;;;;;5048740;28;20200;-71
2021/10/12 03:32:29;;;;;;;3.47;1.53;;;;;;;;;;5049497;28;20290;-71
2021/10/12 03:34:55;;;;;;;6.63;1.80;;;;;;;;;;5049351;28;20182;-71
2021/10/12 03:37:20;;;;;;;4.80;1.57;;;;;;;;;;5050786;28;20216;-71
2021/10/12 03:39:45;;;;;;;7.17;2.00;;;;;;;;;;5043727;28;20303;-71
2021/10/12 03:42:11;;;;;;;14.03;2.50;;;;;;;;;;5041495;28;20200;-72
2021/10/12 03:44:36;;;;;;;7.03;1.80;;;;;;;;;;5048853;28;20208;-72
2021/10/12 03:47:01;;;;;;;6.50;2.70;;;;;;;;;;5050923;28;20525;-71
2021/10/12 03:49:26;;;;;;;7.03;2.80;;;;;;;;;;5053714;28;20615;-71
2021/10/12 03:51:51;;;;;;;10.27;2.17;;;;;;;;;;5052873;28;20295;-72
2021/10/12 03:54:17;;;;;;;5.80;2.20;;;;;;;;;;5050203;28;20194;-72
2021/10/12 03:56:42;;;;;;;7.17;2.40;;;;;;;;;;5048863;28;20174;-71
2021/10/12 03:59:07;;;;;;;4.77;2.00;;;;;;;;;;5045156;28;20251;-72
2021/10/12 04:01:33;;;;;;;9.17;3.03;;;;;;;;;;5051629;28;20197;-72
2021/10/12 04:03:59;;;;;;;6.13;3.10;;;;;;;;;;5051432;28;20173;-72
2021/10/12 04:06:24;;;;;;;6.47;2.50;;;;;;;;;;5047782;28;20239;-72
2021/10/12 04:08:49;;;;;;;3.43;1.80;;;;;;;;;;5048701;28;20194;-71
2021/10/12 04:11:14;;;;;;;8.47;2.57;;;;;;;;;;5046442;28;20201;-71
2021/10/12 04:13:40;;;;;;;8.87;2.47;;;;;;;;;;5046076;28;20267;-72
2021/10/12 04:16:05;;;;;;;6.47;2.30;;;;;;;;;;5048124;28;20182;-72
2021/10/12 04:18:30;;;;;;;3.70;2.20;;;;;;;;;;5047434;28;20190;-72
2021/10/12 04:20:56;;;;;;;6.23;2.37;;;;;;;;;;5049748;28;20233;-72
2021/10/12 04:23:21;;;;;;;5.70;2.50;;;;;;;;;;5051602;28;20178;-72
2021/10/12 04:25:47;;;;;;;6.80;2.57;;;;;;;;;;5048829;28;20631;-72
2021/10/12 04:28:13;;;;;;;9.60;2.63;;;;;;;;;;5052494;28;20174;-72
2021/10/12 04:30:42;;;;;;;6.87;2.93;;;;;;;;;;5031218;28;20198;-72
2021/10/12 04:33:08;;;;;;;7.00;3.60;;;;;;;;;;5041186;28;20183;-72
2021/10/12 04:35:33;;;;;;;8.27;2.50;;;;;;;;;;5042462;28;20189;-72
2021/10/12 04:37:59;;;;;;;11.10;3.53;;;;;;;;;;5024874;28;20205;-72
2021/10/12 04:40:25;;;;;;;9.90;4.17;;;;;;;;;;5048331;28;20180;-73
2021/10/12 04:42:50;;;;;;;8.17;3.43;;;;;;;;;;5053353;28;20173;-72
2021/10/12 04:45:16;;;;;;;9.80;4.57;;;;;;;;;;5048520;28;20587;-72
2021/10/12 04:47:41;;;;;;;8.60;3.77;;;;;;;;;;5053693;28;20177;-72
2021/10/12 04:50:06;;;;;;;7.13;3.33;;;;;;;;;;5045668;28;20197;-72
2021/10/12 04:52:32;;;;;;;9.97;4.37;;;;;;;;;;5027863;28;20216;-72
2021/10/12 04:54:57;;;;;;;6.33;3.13;;;;;;;;;;5032025;28;20646;-74
2021/10/12 04:57:22;;;;;;;8.93;3.37;;;;;;;;;;5048782;28;21534;-72
2021/10/12 04:59:47;;;;;;;9.10;3.93;;;;;;;;;;5053143;28;21032;-72
2021/10/12 05:02:12;;;;;;;8.43;3.87;;;;;;;;;;5032329;28;20197;-72
2021/10/12 05:04:37;;;;;;;7.67;3.77;;;;;;;;;;5056815;28;20176;-72
2021/10/12 05:07:03;;;;;;;8.07;4.00;;;;;;;;;;5048251;28;20670;-72
2021/10/12 05:09:28;;;;;;;7.13;4.43;;;;;;;;;;5046203;28;20181;-72
2021/10/12 05:11:53;;;;;;;9.87;4.20;;;;;;;;;;5045306;28;20244;-72
2021/10/12 05:14:19;;;;;;;10.47;4.00;;;;;;;;;;5045647;28;20185;-72
2021/10/12 05:16:44;;;;;;;9.93;4.70;;;;;;;;;;5046494;28;20519;-72
2021/10/12 05:19:09;;;;;;;7.27;3.67;;;;;;;;;;5042949;28;20201;-72
2021/10/12 05:21:34;;;;;;;11.07;4.70;;;;;;;;;;5046679;28;20569;-72
2021/10/12 05:23:59;;;;;;;9.33;4.20;;;;;;;;;;5048682;28;20181;-72
2021/10/12 05:26:25;;;;;;;9.10;5.23;;;;;;;;;;5049449;28;20560;-72
2021/10/12 05:28:51;;;;;;;12.23;5.57;;;;;;;;;;5047040;28;20655;-72
2021/10/12 05:31:17;;;;;;;10.43;4.80;;;;;;;;;;5050768;28;20197;-72
2021/10/12 05:33:44;;;;;;;8.63;4.97;;;;;;;;;;5051791;28;20183;-71
2021/10/12 05:36:09;;;;;;;7.30;5.13;;;;;;;;;;5047563;28;20178;-72
2021/10/12 05:38:34;;;;;;;7.67;5.70;;;;;;;;;;5047777;28;20251;-72
2021/10/12 05:40:59;;;;;;;13.23;6.67;;;;;;;;;;5048871;28;20201;-72
2021/10/12 05:43:24;;;;;;;9.97;6.77;;;;;;;;;;5051561;28;20642;-71
2021/10/12 05:45:50;;;;;;;10.20;6.10;;;;;;;;;;5035244;28;20665;-72
2021/10/12 05:48:15;;;;;;;19.10;7.73;;;;;;;;;;5052205;28;20177;-72
2021/10/12 05:50:42;;;;;;;12.63;6.67;;;;;;;;;;5054973;28;20212;-72
2021/10/12 05:53:26;;;;;;;10.70;6.60;;;;;;;;;;5050521;28;20182;-71
2021/10/12 06:00:51;;;;;;;12.07;7.40;;;;;;;;;;5043413;28;20716;-72
2021/10/12 06:03:17;;;;;;;12.10;8.27;;;;;;;;;;5036385;28;20194;-72
2021/10/12 06:05:42;;;;;;;15.43;8.57;;;;;;;;;;5037304;28;20192;-72
2021/10/12 06:08:07;;;;;;;11.90;8.73;;;;;;;;;;5040915;28;20185;-72
2021/10/12 06:10:34;;;;;;;12.33;9.00;;;;;;;;;;5041807;28;20192;-72
2021/10/12 06:13:07;;;;;;;14.50;8.43;;;;;;;;;;5038433;28;20236;-72
2021/10/12 06:15:32;;;;;;;10.87;8.10;;;;;;;;;;5037267;28;20195;-72
2021/10/12 06:17:58;;;;;;;12.57;9.30;;;;;;;;;;5039018;28;20193;-71
2021/10/12 06:20:23;;;;;;;16.00;8.50;;;;;;;;;;5040133;28;20173;-72
2021/10/12 06:22:48;;;;;;;13.30;9.17;;;;;;;;;;5041402;28;20236;-72
2021/10/12 06:25:13;;;;;;;13.83;9.47;;;;;;;;;;5039045;28;20179;-71
2021/10/12 06:27:38;;;;;;;14.60;8.17;;;;;;;;;;5036690;28;20189;-71
2021/10/12 06:30:04;;;;;;;15.80;8.70;;;;;;;;;;5039418;28;20235;-72
2021/10/12 06:32:29;;;;;;;11.93;8.77;;;;;;;;;;5037789;28;20670;-72
2021/10/12 06:34:54;;;;;;;14.67;7.67;;;;;;;;;;5038089;28;20178;-72
2021/10/12 06:37:19;;;;;;;21.10;9.80;;;;;;;;;;5036238;28;20251;-72
2021/10/12 06:39:44;;;;;;;12.10;8.70;;;;;;;;;;5036289;28;20654;-72
2021/10/12 06:42:10;;;;;;;14.07;7.53;;;;;;;;;;5037662;28;20196;-72
2021/10/12 06:44:35;;;;;;;14.60;7.80;;;;;;;;;;5018706;28;20243;-72
2021/10/12 06:47:00;;;;;;;14.30;8.43;;;;;;;;;;5037067;28;20186;-72
2021/10/12 06:49:25;;;;;;;14.30;7.70;;;;;;;;;;5034431;28;20189;-72
2021/10/12 06:51:50;;;;;;;13.68;7.35;;;;;;;;;;5038628;28;20217;-72
2021/10/12 06:54:15;;;;;;;13.52;7.15;;;;;;;;;;5034908;28;20201;-72
2021/10/12 06:56:41;;;;;;;20.77;8.60;;;;;;;;;;5033710;28;20631;-72
2021/10/12 06:59:06;;;;;;;14.43;6.93;;;;;;;;;;5036244;28;20308;-72
2021/10/12 07:01:31;;;;;;;16.27;7.45;;;;;;;;;;5037376;28;20205;-72
2021/10/12 07:03:56;;;;;;;16.73;7.32;;;;;;;;;;5034085;28;20581;-72
2021/10/12 07:06:21;;;;;;;10.98;6.25;;;;;;;;;;5040608;28;20186;-72
2021/10/12 07:08:47;;;;;;;13.48;6.50;;;;;;;;;;5036792;28;20173;-72
2021/10/12 07:11:12;;;;;;;19.70;7.03;;;;;;;;;;5040418;28;20321;-72
2021/10/12 07:13:37;;;;;;;13.63;6.80;;;;;;;;;;5029853;28;20256;-72
2021/10/12 07:16:02;;;;;;;11.98;6.22;;;;;;;;;;5033734;28;20192;-71
2021/10/12 07:18:27;;;;;;;18.35;5.82;;;;;;;;;;5036492;28;20278;-72
2021/10/12 07:20:53;;;;;;;11.60;6.35;;;;;;;;;;5040722;28;20674;-72
2021/10/12 07:23:18;;;;;;;11.10;5.33;;;;;;;;;;5038669;28;20223;-70
2021/10/12 07:25:44;;;;;;;7.78;4.40;;;;;;;;;;5042999;28;20257;-72
2021/10/12 07:28:09;;;;;;;10.43;5.15;;;;;;;;;;5048753;28;20317;-72
2021/10/12 07:30:34;;;;;;;16.02;4.65;;;;;;;;;;5043025;28;20208;-72
2021/10/12 07:32:59;;;;;;;10.80;4.47;;;;;;;;;;5042463;28;20667;-72
2021/10/12 07:35:25;;;;;;;13.88;4.30;;;;;;;;;;5047855;28;20185;-72
2021/10/12 07:37:50;;;;;;;14.48;4.90;;;;;;;;;;5046047;28;20292;-72
2021/10/12 07:40:15;;;;;;;9.10;3.40;;;;;;;;;;5048157;28;20170;-70
2021/10/12 07:42:40;;;;;;;16.08;3.33;;;;;;;;;;5046658;28;20671;-70
2021/10/12 07:45:06;;;;;;;10.93;3.30;;;;;;;;;;5043465;28;20177;-72
2021/10/12 07:47:31;;;;;;;7.15;3.38;;;;;;;;;;5042808;28;20528;-72
2021/10/12 07:49:57;;;;;;;8.25;2.95;;;;;;;;;;5045768;28;20197;-71
2021/10/12 07:52:22;;;;;;;8.48;2.90;;;;;;;;;;5050018;28;20288;-72
2021/10/12 07:54:51;;;;;;;10.20;3.55;;;;;;;;;;5064827;22;20612;-74
2021/10/12 07:57:17;;;;;;;8.63;2.35;;;;;;;;;;5046390;28;20264;-75
2021/10/12 07:59:43;;;;;;;7.43;2.78;;;;;;;;;;5048403;28;20295;-75
2021/10/12 08:02:13;;;;;;;9.60;2.72;;;;;;;;;;5070237;28;20658;-75
2021/10/12 08:04:40;;;;;;;7.53;2.10;;;;;;;;;;5040502;28;20206;-74
2021/10/12 08:07:05;;;;;;;6.45;2.03;;;;;;;;;;5068727;28;20650;-75
2021/10/12 08:09:30;;;;;;;14.75;3.85;;;;;;;;;;5045344;28;20184;-74
2021/10/12 08:11:57;;;;;;;13.60;2.10;;;;;;;;;;5068007;28;20539;-74
2021/10/12 08:14:23;;;;;;;8.35;2.05;;;;;;;;;;5052016;28;20507;-74
2021/10/12 08:16:48;;;;;;;5.68;1.73;;;;;;;;;;5051154;28;20191;-75
2021/10/12 08:19:13;;;;;;;6.13;2.22;;;;;;;;;;5068003;28;20205;-74
2021/10/12 08:21:39;;;;;;;10.40;2.70;;;;;;;;;;5035772;28;20246;-74
2021/10/12 08:24:05;;;;;;;7.97;2.70;;;;;;;;;;5033409;28;20209;-74
2021/10/12 08:26:30;;;;;;;8.63;2.30;;;;;;;;;;5035225;28;20232;-74
2021/10/12 08:28:56;;;;;;;12.50;2.78;;;;;;;;;;5047067;28;20388;-74
2021/10/12 08:31:21;;;;;;;6.35;3.10;;;;;;;;;;5050407;28;20181;-74
2021/10/12 08:33:47;;;;;;;8.10;2.05;;;;;;;;;;5051037;28;20185;-74
2021/10/12 08:36:12;;;;;;;8.85;3.00;;;;;;;;;;5051610;28;20284;-74
2021/10/12 08:38:38;;;;;;;6.88;2.00;;;;;;;;;;5050233;28;20275;-74
2021/10/12 08:41:05;;;;;;;11.23;2.17;;;;;;;;;;5048254;28;20181;-74
2021/10/12 08:43:32;;;;;;;8.68;2.00;;;;;;;;;;5050037;28;20867;-74
2021/10/12 08:45:58;;;;;;;8.68;2.75;;;;;;;;;;5040927;28;20272;-74
2021/10/12 08:48:23;;;;;;;7.63;1.65;;;;;;;;;;5049753;28;20309;-74
2021/10/12 08:50:49;;;;;;;7.57;1.90;;;;;;;;;;5048598;28;20193;-75
2021/10/12 08:53:14;;;;;;;7.25;2.25;;;;;;;;;;5050639;28;20288;-74
2021/10/12 08:55:40;;;;;;;9.75;2.17;;;;;;;;;;5048671;28;20217;-75
2021/10/12 08:58:05;;;;;;;10.27;2.58;;;;;;;;;;5052630;28;20617;-74
2021/10/12 09:00:30;;;;;;;8.20;2.78;;;;;;;;;;5052830;28;20615;-74
2021/10/12 09:05:48;;;;;;;13.70;3.15;;;;;;;;;;5057296;28;20575;-75
2021/10/12 09:08:15;;;;;;;5.97;2.15;;;;;;;;;;5050559;28;20192;-74
2021/10/12 09:10:40;;;;;;;6.07;1.80;;;;;;;;;;5058995;28;20446;-75
2021/10/12 09:13:08;;;;;;;6.85;1.80;;;;;;;;;;5052730;28;20185;-75
2021/10/12 09:15:33;;;;;;;8.60;2.05;;;;;;;;;;5055560;28;20258;-74
2021/10/12 09:17:58;;;;;;;6.10;1.70;;;;;;;;;;5048644;28;22169;-75
2021/10/12 09:20:25;;;;;;;13.40;2.17;;;;;;;;;;5030691;28;20419;-75
2021/10/12 09:23:10;;;;;;;7.47;1.92;;;;;;;;;;5050718;28;20441;-74
2021/10/12 09:25:36;;;;;;;15.60;2.08;;;;;;;;;;5050503;28;20262;-75
2021/10/12 09:28:02;;;;;;;9.05;1.98;;;;;;;;;;5060986;28;20177;-76
2021/10/12 09:30:28;;;;;;;8.75;2.30;;;;;;;;;;5046406;28;20231;-76
2021/10/12 09:33:00;;;;;;;5.32;1.17;;;;;;;;;;5050051;28;20181;-76
2021/10/12 09:35:27;;;;;;;7.40;1.50;;;;;;;;;;5059684;28;20201;-75
2021/10/12 09:38:01;;;;;;;3.10;1.15;;;;;;;;;;5050285;28;20704;-74
2021/10/12 09:40:26;;;;;;;3.45;1.05;;;;;;;;;;5051778;28;20306;-74
2021/10/12 09:42:51;;;;;;;2.03;0.90;;;;;;;;;;5063207;28;20689;-75
2021/10/12 09:45:16;;;;;;;3.78;1.35;;;;;;;;;;5035732;28;20452;-74
2021/10/12 09:47:43;;;;;;;4.20;1.50;;;;;;;;;;5033151;28;20178;-74
2021/10/12 09:50:09;;;;;;;1.88;0.68;;;;;;;;;;5050748;28;20175;-74
2021/10/12 09:52:36;;;;;;;2.15;0.80;;;;;;;;;;5049251;28;20184;-74
2021/10/12 09:55:01;;;;;;;4.82;0.80;;;;;;;;;;5050987;28;20213;-74
2021/10/12 09:57:30;;;;;;;1.95;0.98;;;;;;;;;;5055451;28;20592;-74
2021/10/12 09:59:55;;;;;;;4.25;1.10;;;;;;;;;;5058216;28;20177;-74
2021/10/12 10:02:21;;;;;;;5.03;1.05;;;;;;;;;;5050659;28;20196;-74
2021/10/12 10:04:47;;;;;;;6.32;1.25;;;;;;;;;;5048242;28;20292;-74
2021/10/12 10:07:31;;;;;;;3.15;1.10;;;;;;;;;;5046688;28;20715;-76
2021/10/12 10:10:00;;;;;;;4.00;0.90;;;;;;;;;;5049579;28;20750;-74
2021/10/12 10:12:25;;;;;;;2.85;1.08;;;;;;;;;;5052026;28;20187;-74
2021/10/12 10:14:51;;;;;;;2.88;0.93;;;;;;;;;;5049933;28;20196;-74
2021/10/12 10:17:16;;;;;;;2.92;1.10;;;;;;;;;;5053371;28;20185;-74
2021/10/12 10:19:42;;;;;;;3.63;0.77;;;;;;;;;;5063048;28;20200;-74
2021/10/12 10:22:08;;;;;;;3.42;1.88;;;;;;;;;;5073947;28;20642;-74
2021/10/12 10:24:33;;;;;;;3.55;1.20;;;;;;;;;;5070563;28;20221;-74
2021/10/12 10:26:59;;;;;;;3.88;0.77;;;;;;;;;;5065516;28;20263;-74
2021/10/12 10:29:27;;;;;;;3.30;0.95;;;;;;;;;;5043046;28;20660;-74
2021/10/12 10:31:54;;;;;;;4.38;0.90;;;;;;;;;;5034700;28;20236;-74
2021/10/12 10:34:28;;;;;;;4.10;0.80;;;;;;;;;;5050169;28;20188;-74
2021/10/12 10:37:23;;;;;;;4.63;0.90;;;;;;;;;;5061645;28;20226;-74
2021/10/12 10:39:48;;;;;;;2.60;0.70;;;;;;;;;;5039532;28;20216;-74
2021/10/12 10:42:25;;;;;;;5.07;1.00;;;;;;;;;;5051553;28;20181;-73
2021/10/12 10:44:54;;;;;;;3.22;1.10;;;;;;;;;;5049120;28;20365;-75
2021/10/12 10:47:38;;;;;;;3.38;1.20;;;;;;;;;;5050028;28;20236;-73
2021/10/12 10:50:14;;;;;;;2.80;1.25;;;;;;;;;;5050544;28;20200;-73
2021/10/12 10:52:40;;;;;;;1.75;1.05;;;;;;;;;;5050135;28;20650;-73
2021/10/12 10:55:06;;;;;;;4.53;1.27;;;;;;;;;;5052164;28;20216;-74
2021/10/12 10:57:32;;;;;;;3.88;1.50;;;;;;;;;;5034301;28;20547;-73
2021/10/12 11:00:12;;;;;;;4.55;1.10;;;;;;;;;;5062038;28;20180;-74
2021/10/12 11:02:37;;;;;;;3.10;1.10;;;;;;;;;;5050835;28;20195;-73
2021/10/12 11:05:02;;;;;;;3.22;1.10;;;;;;;;;;5050382;28;20666;-73
2021/10/12 11:07:29;;;;;;;1.98;1.08;;;;;;;;;;5053336;28;20181;-73
2021/10/12 11:09:54;;;;;;;3.17;1.02;;;;;;;;;;5036196;28;20250;-73
2021/10/12 11:12:26;;;;;;;3.22;1.80;;;;;;;;;;5052493;28;20181;-73
2021/10/12 11:14:52;;;;;;;6.20;1.40;;;;;;;;;;5033173;28;20200;-73
2021/10/12 11:17:17;;;;;;;4.45;1.30;;;;;;;;;;5049790;28;20282;-73
2021/10/12 11:19:55;;;;;;;2.47;1.00;;;;;;;;;;5055124;28;20384;-74
2021/10/12 11:22:21;;;;;;;5.18;1.30;;;;;;;;;;5046710;28;20205;-76
2021/10/12 11:24:47;;;;;;;3.40;1.00;;;;;;;;;;5052144;28;20330;-74
2021/10/12 11:27:12;;;;;;;2.33;0.80;;;;;;;;;;5057105;28;20240;-74
2021/10/12 11:29:38;;;;;;;3.88;0.93;;;;;;;;;;5048531;28;20208;-74
2021/10/12 11:32:03;;;;;;;4.55;0.90;;;;;;;;;;5050414;28;20182;-73
2021/10/12 11:34:30;;;;;;;1.48;0.82;;;;;;;;;;5051291;28;20212;-73
2021/10/12 11:37:05;;;;;;;2.10;0.82;;;;;;;;;;5053279;28;20196;-73
2021/10/12 11:39:30;;;;;;;2.33;0.50;;;;;;;;;;5047419;28;20215;-73
2021/10/12 11:42:00;;;;;;;1.50;0.50;;;;;;;;;;5049641;28;20177;-73
2021/10/12 11:44:25;;;;;;;2.10;0.57;;;;;;;;;;5050658;28;20438;-73
2021/10/12 11:46:51;;;;;;;2.15;0.50;;;;;;;;;;5048565;28;20813;-73
2021/10/12 11:49:18;;;;;;;2.35;0.73;;;;;;;;;;5050317;28;20879;-73
2021/10/12 11:51:44;;;;;;;2.20;0.75;;;;;;;;;;5049814;28;20303;-73
2021/10/12 11:54:10;;;;;;;2.85;1.05;;;;;;;;;;5050983;28;20173;-74
2021/10/12 11:56:36;;;;;;;4.28;0.85;;;;;;;;;;5050026;28;20192;-73
2021/10/12 11:59:02;;;;;;;3.83;0.60;;;;;;;;;;5049844;28;20201;-73
2021/10/12 12:01:31;;;;;;;3.45;0.40;;;;;;;;;;5049196;28;20238;-73
2021/10/12 12:03:57;;;;;;;1.08;0.60;;;;;;;;;;5050675;28;20268;-73
2021/10/12 12:06:24;;;;;;;1.02;0.63;;;;;;;;;;5048824;28;20200;-74
2021/10/12 12:08:50;;;;;;;1.00;0.40;;;;;;;;;;5047969;28;20208;-74
2021/10/12 12:11:17;;;;;;;2.15;0.60;;;;;;;;;;5049988;28;20226;-74
2021/10/12 12:13:42;;;;;;;3.35;0.60;;;;;;;;;;5052541;28;20189;-74
2021/10/12 12:16:07;;;;;;;3.17;0.52;;;;;;;;;;5051928;28;20204;-73
2021/10/12 12:18:41;;;;;;;3.42;0.93;;;;;;;;;;5056086;28;20641;-74
2021/10/12 12:21:07;;;;;;;4.47;0.50;;;;;;;;;;5051687;28;20216;-73
2021/10/12 12:23:33;;;;;;;2.33;0.65;;;;;;;;;;5049380;28;20259;-73
2021/10/12 12:25:58;;;;;;;6.00;0.82;;;;;;;;;;5048146;28;20197;-73
2021/10/12 12:28:23;;;;;;;2.38;0.77;;;;;;;;;;5053133;28;20858;-73
2021/10/12 12:30:49;;;;;;;2.80;1.02;;;;;;;;;;5035143;28;20184;-74
2021/10/12 12:33:14;;;;;;;3.95;1.10;;;;;;;;;;5048329;28;20709;-74
2021/10/12 12:35:43;;;;;;;3.50;0.80;;;;;;;;;;5051319;28;20209;-74
2021/10/12 12:38:09;;;;;;;1.27;0.52;;;;;;;;;;5056928;28;20288;-73
2021/10/12 12:40:36;;;;;;;4.43;0.80;;;;;;;;;;5046737;28;20601;-74
2021/10/12 12:43:19;;;;;;;3.60;0.90;;;;;;;;;;5047295;28;20177;-74
2021/10/12 12:45:45;;;;;;;4.35;1.05;;;;;;;;;;5048991;28;20199;-74
2021/10/12 12:48:10;;;;;;;5.50;0.57;;;;;;;;;;5033241;28;20880;-73
2021/10/12 12:50:36;;;;;;;2.95;0.70;;;;;;;;;;5049050;28;20546;-74
2021/10/12 12:53:05;;;;;;;2.05;0.50;;;;;;;;;;5034692;28;20323;-73
2021/10/12 12:55:32;;;;;;;3.42;0.47;;;;;;;;;;5032920;28;20205;-74
2021/10/12 12:57:57;;;;;;;6.35;1.75;;;;;;;;;;5052904;28;20343;-74
2021/10/12 13:00:23;;;;;;;2.85;0.57;;;;;;;;;;5047248;28;20660;-74
2021/10/12 13:02:57;;;;;;;4.85;0.60;;;;;;;;;;5047407;28;20594;-74
2021/10/12 13:05:23;;;;;;;3.45;1.17;;;;;;;;;;5050374;28;20207;-73
2021/10/12 13:07:52;;;;;;;2.53;0.80;;;;;;;;;;5049120;28;20185;-73
2021/10/12 13:10:17;;;;;;;4.55;0.70;;;;;;;;;;5046570;28;20195;-72
2021/10/12 13:12:46;;;;;;;4.45;0.50;;;;;;;;;;5047149;28;20177;-74
2021/10/12 13:15:12;;;;;;;3.30;0.75;;;;;;;;;;5048230;28;20200;-74
2021/10/12 13:17:37;;;;;;;3.47;0.75;;;;;;;;;;5049878;28;20184;-73
2021/10/12 13:20:03;;;;;;;4.60;0.90;;;;;;;;;;5053208;28;20238;-74
2021/10/12 13:22:28;;;;;;;3.17;0.85;;;;;;;;;;5038890;28;20568;-74
2021/10/12 13:24:54;;;;;;;1.77;0.60;;;;;;;;;;5050784;28;20232;-74
2021/10/12 13:27:19;;;;;;;1.92;0.82;;;;;;;;;;5049390;28;20193;-74
2021/10/12 13:29:46;;;;;;;4.15;0.68;;;;;;;;;;5050498;28;20189;-74
2021/10/12 13:32:11;;;;;;;3.95;0.80;;;;;;;;;;5048266;28;20370;-73
2021/10/12 13:34:37;;;;;;;4.18;0.63;;;;;;;;;;5049504;28;20193;-74
2021/10/12 13:37:02;;;;;;;3.75;0.57;;;;;;;;;;5049984;28;20200;-74
2021/10/12 13:39:27;;;;;;;3.83;0.70;;;;;;;;;;5043106;28;20208;-72
2021/10/12 13:41:53;;;;;;;6.43;0.73;;;;;;;;;;5048860;28;20184;-72
2021/10/12 13:44:19;;;;;;;3.95;0.50;;;;;;;;;;5047213;28;20767;-72
2021/10/12 13:46:44;;;;;;;3.33;0.63;;;;;;;;;;5054735;28;20165;-72
2021/10/12 13:49:09;;;;;;;4.30;0.80;;;;;;;;;;5051443;28;20181;-74
2021/10/12 13:51:34;;;;;;;6.97;1.33;;;;;;;;;;5054195;28;20498;-75
2021/10/12 13:54:00;;;;;;;3.13;0.68;;;;;;;;;;5051407;28;20188;-74
2021/10/12 13:56:25;;;;;;;1.85;0.50;;;;;;;;;;5052683;28;20214;-74
2021/10/12 13:58:51;;;;;;;3.72;0.63;;;;;;;;;;5054570;28;20237;-72
2021/10/12 14:01:16;;;;;;;1.08;0.40;;;;;;;;;;5050382;28;20188;-74
2021/10/12 14:03:41;;;;;;;5.45;0.95;;;;;;;;;;5053122;28;20560;-72
2021/10/12 14:06:06;;;;;;;4.38;0.50;;;;;;;;;;5052686;28;20201;-72
2021/10/12 14:08:33;;;;;;;4.32;0.57;;;;;;;;;;5035730;28;20185;-72
2021/10/12 14:10:58;;;;;;;2.33;0.40;;;;;;;;;;5052578;28;20234;-72
2021/10/12 14:13:25;;;;;;;7.25;1.25;;;;;;;;;;5052374;28;20181;-74
2021/10/12 14:15:50;;;;;;;0.80;0.40;;;;;;;;;;5052339;28;20220;-74
2021/10/12 14:18:15;;;;;;;2.10;0.50;;;;;;;;;;5053830;28;20749;-74
2021/10/12 14:20:40;;;;;;;3.47;0.60;;;;;;;;;;5057963;28;20706;-73
2021/10/12 14:23:06;;;;;;;2.38;0.43;;;;;;;;;;5053145;28;20247;-73
2021/10/12 14:25:31;;;;;;;3.70;0.70;;;;;;;;;;5049435;28;20193;-73
2021/10/12 14:27:57;;;;;;;2.80;0.73;;;;;;;;;;5055195;28;20440;-74
2021/10/12 14:30:22;;;;;;;1.75;0.57;;;;;;;;;;5050523;28;20792;-73
2021/10/12 14:32:48;;;;;;;3.67;1.10;;;;;;;;;;5049540;28;20662;-73
2021/10/12 14:35:13;;;;;;;5.13;1.15;;;;;;;;;;5048386;28;20209;-74
2021/10/12 14:37:39;;;;;;;6.20;0.70;;;;;;;;;;5051044;28;20243;-73
2021/10/12 14:40:05;;;;;;;1.83;0.60;;;;;;;;;;5049694;28;20475;-74
2021/10/12 14:42:31;;;;;;;1.55;0.47;;;;;;;;;;5049100;28;20209;-73